Time;durP1;ratioP1;P1;durP2;ratioP2;P2;SDS_P1;SDS_P2;PMS_P1;PMS_P2;Temp;Humidity;BMP_temperature;BMP_pressure;BME280_temperature;BME280_humidity;BME280_pressure;Samples;Min_cycle;Max_cycle;Signal;HPM_P1;HPM_P2
2022/08/18 00:01:04;;;;;;;8.75;5.57;;;;;;;15.55;92.89;93695.25;5029121;28;20051;-65
2022/08/18 00:03:31;;;;;;;8.60;5.53;;;;;;;15.58;94.08;93686.06;5043982;28;20046;-68
2022/08/18 00:06:18;;;;;;;8.82;5.60;;;;;;;15.71;93.09;93683.97;5029402;28;20057;-67
2022/08/18 00:08:45;;;;;;;8.65;5.32;;;;;;;15.77;91.98;93670.34;5029720;28;20458;-67
2022/08/18 00:11:12;;;;;;;9.43;5.57;;;;;;;15.81;91.43;93664.69;5029049;28;20042;-69
2022/08/18 00:13:39;;;;;;;7.95;5.28;;;;;;;15.78;90.73;93664.34;5030044;28;20045;-68
2022/08/18 00:16:05;;;;;;;9.15;6.07;;;;;;;15.69;92.42;93652.44;5029040;28;20034;-65
2022/08/18 00:18:32;;;;;;;9.50;5.70;;;;;;;15.69;92.02;93644.16;5028321;28;20048;-67
2022/08/18 00:21:01;;;;;;;10.10;6.45;;;;;;;15.67;92.51;93655.66;5027757;28;20048;-68
2022/08/18 00:23:30;;;;;;;9.20;6.03;;;;;;;15.66;92.64;93643.06;5029056;28;20053;-68
2022/08/18 00:25:58;;;;;;;10.18;5.85;;;;;;;15.58;93.02;93650.88;5029389;28;20394;-66
2022/08/18 00:28:25;;;;;;;10.82;7.18;;;;;;;15.43;93.40;93662.94;5028882;28;20046;-67
2022/08/18 00:30:51;;;;;;;8.95;5.40;;;;;;;15.36;93.65;93664.75;5029167;28;20092;-69
2022/08/18 00:33:20;;;;;;;8.25;5.68;;;;;;;15.23;94.61;93650.25;5029014;28;20037;-67
2022/08/18 00:35:47;;;;;;;9.63;5.87;;;;;;;15.27;95.70;93642.59;5029420;28;20055;-67
2022/08/18 00:38:14;;;;;;;8.88;5.82;;;;;;;15.43;94.72;93624.97;5013202;28;20052;-67
2022/08/18 00:40:52;;;;;;;9.48;5.93;;;;;;;15.30;94.76;93622.31;5029382;28;20042;-67
2022/08/18 00:43:44;;;;;;;9.93;6.60;;;;;;;15.45;94.66;93630.84;5027673;28;20037;-67
2022/08/18 00:46:15;;;;;;;8.52;5.72;;;;;;;15.29;94.08;93640.16;5028562;28;20399;-67
2022/08/18 00:48:42;;;;;;;8.37;5.40;;;;;;;15.18;94.48;93628.72;5027532;28;20055;-66
2022/08/18 00:51:21;;;;;;;8.55;5.82;;;;;;;15.07;94.78;93623.59;5028852;28;20429;-68
2022/08/18 00:54:00;;;;;;;7.95;5.22;;;;;;;14.99;95.59;93625.09;5029187;28;20102;-66
2022/08/18 00:56:35;;;;;;;9.32;5.95;;;;;;;14.92;96.52;93636.38;5016840;28;20059;-67
2022/08/18 00:59:15;;;;;;;9.10;5.68;;;;;;;14.96;96.66;93631.50;5028953;28;20045;-68
2022/08/18 01:01:43;;;;;;;9.30;6.03;;;;;;;14.97;96.25;93638.59;5028212;28;21639;-66
2022/08/18 01:04:36;;;;;;;9.20;5.78;;;;;;;15.01;96.24;93638.44;5028350;28;20079;-66
2022/08/18 01:07:16;;;;;;;10.05;5.80;;;;;;;15.07;95.49;93642.94;5023933;28;20055;-67
2022/08/18 01:09:43;;;;;;;9.95;6.32;;;;;;;14.99;95.62;93647.19;5029193;28;20045;-67
2022/08/18 01:12:10;;;;;;;9.20;5.72;;;;;;;15.02;96.20;93634.47;5028283;28;20434;-67
2022/08/18 01:14:57;;;;;;;8.17;5.60;;;;;;;15.13;94.88;93640.34;5028413;28;20418;-67
2022/08/18 01:23:15;;;;;;;9.77;6.22;;;;;;;15.16;95.37;93645.75;5017935;28;20048;-67
2022/08/18 01:25:59;;;;;;;8.77;6.13;;;;;;;15.18;94.54;93637.00;5027918;28;21430;-68
2022/08/18 01:28:27;;;;;;;9.97;5.50;;;;;;;15.36;93.96;93639.09;5028068;28;20566;-67
2022/08/18 01:30:57;;;;;;;9.07;5.95;;;;;;;15.34;93.92;93644.31;5028398;28;20068;-67
2022/08/18 01:33:26;;;;;;;10.32;6.40;;;;;;;15.21;94.33;93638.09;5028455;28;20049;-67
2022/08/18 01:35:57;;;;;;;9.07;6.07;;;;;;;15.12;94.53;93627.75;5028528;28;20059;-67
2022/08/18 01:38:25;;;;;;;11.02;6.15;;;;;;;14.84;96.01;93624.81;5014381;28;20052;-67
2022/08/18 01:40:53;;;;;;;9.87;6.17;;;;;;;15.10;95.89;93622.69;5028838;28;20060;-68
2022/08/18 01:43:39;;;;;;;9.70;6.25;;;;;;;15.00;95.59;93621.09;5013161;28;20041;-67
2022/08/18 01:46:07;;;;;;;9.27;6.40;;;;;;;15.18;95.91;93621.19;5028095;28;20051;-65
2022/08/18 01:48:35;;;;;;;9.38;6.07;;;;;;;15.37;94.82;93618.50;5026996;28;20056;-66
2022/08/18 01:51:06;;;;;;;8.82;6.10;;;;;;;15.46;94.43;93623.31;5029078;28;20053;-67
2022/08/18 01:53:33;;;;;;;9.63;6.10;;;;;;;15.31;94.31;93631.38;5028328;28;21529;-67
2022/08/18 01:56:03;;;;;;;8.88;6.32;;;;;;;15.00;96.20;93625.84;5028293;28;20182;-67
2022/08/18 01:58:35;;;;;;;9.52;6.38;;;;;;;14.75;97.97;93633.81;5007733;28;20698;-68
2022/08/18 02:01:03;;;;;;;9.43;6.30;;;;;;;14.68;98.47;93627.78;5008636;28;20049;-67
2022/08/18 02:03:34;;;;;;;9.77;6.53;;;;;;;14.69;98.73;93624.56;5007459;28;21504;-68
2022/08/18 02:06:04;;;;;;;10.43;6.40;;;;;;;14.78;98.71;93613.56;5008473;28;20064;-66
2022/08/18 02:08:30;;;;;;;9.63;6.40;;;;;;;14.96;98.34;93615.69;5027467;28;20171;-67
2022/08/18 02:10:59;;;;;;;8.90;6.13;;;;;;;15.13;97.17;93618.22;5028052;28;20423;-66
2022/08/18 02:13:26;;;;;;;8.63;6.18;;;;;;;15.26;96.71;93610.63;5027743;28;20421;-67
2022/08/18 02:15:53;;;;;;;9.65;6.35;;;;;;;15.31;95.41;93606.50;5028173;28;20441;-68
2022/08/18 02:18:28;;;;;;;10.30;6.10;;;;;;;15.46;95.02;93604.72;5027717;28;20049;-67
2022/08/18 02:21:18;;;;;;;9.52;6.40;;;;;;;15.53;94.05;93592.63;5021890;28;20045;-67
2022/08/18 02:23:46;;;;;;;9.02;6.15;;;;;;;15.57;93.67;93599.56;5028354;28;20061;-67
2022/08/18 02:26:20;;;;;;;10.00;6.20;;;;;;;15.69;93.40;93589.59;5027975;28;20049;-66
2022/08/18 02:28:46;;;;;;;10.27;6.60;;;;;;;15.50;93.28;93597.06;5031771;28;20043;-67
2022/08/18 02:31:19;;;;;;;10.37;6.23;;;;;;;15.28;94.13;93596.38;5031024;28;20049;-67
2022/08/18 02:33:46;;;;;;;10.82;6.90;;;;;;;15.38;94.52;93586.88;5031935;28;20053;-66
2022/08/18 02:36:18;;;;;;;9.88;6.75;;;;;;;15.54;93.66;93592.16;5030980;28;20045;-68
2022/08/18 02:38:45;;;;;;;9.40;6.50;;;;;;;15.68;93.11;93582.53;5031591;28;20095;-67
2022/08/18 02:41:27;;;;;;;145.30;92.90;;;;;;;15.76;92.32;93574.75;5031278;28;20037;-67
2022/08/18 02:43:57;;;;;;;12.07;8.20;;;;;;;15.75;91.67;93579.53;5031420;28;20033;-67
2022/08/18 02:46:24;;;;;;;9.70;6.60;;;;;;;15.37;94.31;93577.03;5031294;28;20053;-66
2022/08/18 02:48:56;;;;;;;11.10;7.07;;;;;;;14.87;97.40;93574.22;5031419;28;20041;-69
2022/08/18 02:51:23;;;;;;;11.77;7.53;;;;;;;14.94;98.28;93568.41;5031168;28;20074;-66
2022/08/18 02:53:52;;;;;;;11.30;7.45;;;;;;;14.81;98.90;93556.69;5031540;28;20049;-67
2022/08/18 02:56:28;;;;;;;11.27;7.60;;;;;;;14.82;99.85;93555.44;5030583;28;20045;-67
2022/08/18 02:59:10;;;;;;;12.60;7.60;;;;;;;14.80;100.00;93546.84;5030673;28;20060;-65
2022/08/18 03:01:42;;;;;;;13.93;8.13;;;;;;;14.74;100.00;93554.16;5031393;28;20049;-67
2022/08/18 03:04:13;;;;;;;11.60;7.47;;;;;;;15.15;99.18;93549.44;5030562;28;20093;-67
2022/08/18 03:06:41;;;;;;;10.85;7.30;;;;;;;15.35;97.60;93551.84;5031149;28;20041;-67
2022/08/18 03:09:10;;;;;;;14.60;8.50;;;;;;;15.08;97.72;93555.28;5030424;28;20041;-67
2022/08/18 03:11:37;;;;;;;11.02;7.80;;;;;;;15.16;98.48;93549.00;5031156;28;20041;-67
2022/08/18 03:14:05;;;;;;;11.50;7.53;;;;;;;15.05;98.05;93554.19;5030371;28;20046;-66
2022/08/18 03:16:43;;;;;;;12.32;7.82;;;;;;;15.13;97.08;93554.66;5031003;28;20055;-69
2022/08/18 03:19:29;;;;;;;11.65;7.88;;;;;;;15.25;96.23;93559.34;5030068;28;20091;-68
2022/08/18 03:21:58;;;;;;;12.10;7.60;;;;;;;15.18;96.21;93562.38;5031065;28;20112;-69
2022/08/18 03:24:30;;;;;;;11.40;7.30;;;;;;;15.54;94.75;93561.75;5030187;28;20656;-68
2022/08/18 03:27:00;;;;;;;11.20;7.15;;;;;;;15.70;93.75;93562.72;5062408;28;20398;-69
2022/08/18 03:29:27;;;;;;;10.25;7.03;;;;;;;15.81;92.76;93562.31;5030331;28;20064;-71
2022/08/18 03:32:00;;;;;;;13.07;7.28;;;;;;;15.85;92.19;93566.44;5028858;28;20056;-68
2022/08/18 03:34:28;;;;;;;11.10;7.10;;;;;;;15.87;92.35;93563.22;5024452;28;20049;-70
2022/08/18 03:36:55;;;;;;;11.23;7.18;;;;;;;15.98;91.80;93560.81;5031119;28;20049;-70
2022/08/18 03:39:22;;;;;;;10.18;6.53;;;;;;;15.45;92.55;93558.94;5029853;28;20052;-68
2022/08/18 03:41:54;;;;;;;13.10;7.50;;;;;;;15.13;95.83;93563.75;5030512;28;20053;-69
2022/08/18 03:44:29;;;;;;;12.23;7.10;;;;;;;15.17;94.79;93555.28;5030143;28;20110;-68
2022/08/18 03:46:57;;;;;;;11.60;7.73;;;;;;;15.16;95.67;93545.47;5030432;28;20041;-69
2022/08/18 03:49:25;;;;;;;11.10;7.57;;;;;;;15.18;96.25;93537.50;5030044;28;20049;-70
2022/08/18 03:51:53;;;;;;;11.48;7.60;;;;;;;15.07;97.13;93542.66;5030532;28;20060;-69
2022/08/18 03:54:20;;;;;;;14.38;7.75;;;;;;;15.29;95.90;93545.38;5015992;28;20397;-68
2022/08/18 03:56:48;;;;;;;12.57;8.30;;;;;;;14.96;96.82;93545.84;5030072;28;20046;-68
2022/08/18 03:59:21;;;;;;;12.67;7.90;;;;;;;15.03;97.22;93548.34;5028123;28;20045;-68
2022/08/18 04:01:50;;;;;;;12.07;8.20;;;;;;;15.27;96.03;93542.28;5030456;28;20037;-70
2022/08/18 04:04:22;;;;;;;13.90;8.60;;;;;;;15.07;97.12;93543.44;5029473;28;20064;-69
2022/08/18 04:06:57;;;;;;;13.20;8.35;;;;;;;15.21;97.24;93555.94;5029805;28;20064;-68
2022/08/18 04:09:27;;;;;;;15.43;8.68;;;;;;;15.34;96.57;93562.13;5028773;28;20042;-68
2022/08/18 04:11:55;;;;;;;14.30;8.37;;;;;;;15.55;95.28;93557.75;5029816;28;20052;-69
2022/08/18 04:14:24;;;;;;;14.57;8.20;;;;;;;15.71;94.61;93550.41;5029139;28;20049;-68
2022/08/18 04:16:52;;;;;;;11.90;8.10;;;;;;;15.82;93.85;93552.78;5016135;28;20050;-70
2022/08/18 04:19:18;;;;;;;13.45;8.00;;;;;;;15.75;93.71;93556.59;5027735;28;20418;-69
2022/08/18 04:21:55;;;;;;;14.00;9.02;;;;;;;15.54;93.73;93558.97;5029906;28;20045;-69
2022/08/18 04:24:24;;;;;;;16.50;8.90;;;;;;;15.57;94.05;93557.28;5028865;28;20278;-69
2022/08/18 04:26:52;;;;;;;14.35;8.82;;;;;;;15.28;95.86;93563.19;5029608;28;20106;-68
2022/08/18 04:29:22;;;;;;;14.10;9.60;;;;;;;14.91;98.28;93579.56;5060316;28;20043;-69
2022/08/18 04:31:50;;;;;;;13.77;9.15;;;;;;;14.86;99.21;93577.41;5027826;28;20110;-69
2022/08/18 04:34:20;;;;;;;13.45;8.90;;;;;;;14.71;99.08;93575.19;5029379;28;20033;-68
2022/08/18 04:36:47;;;;;;;14.07;8.60;;;;;;;14.88;98.10;93581.25;5030022;28;20038;-69
2022/08/18 04:39:15;;;;;;;12.18;8.10;;;;;;;15.17;96.23;93580.97;5011399;28;20187;-68
2022/08/18 04:41:42;;;;;;;13.48;8.20;;;;;;;15.25;95.58;93580.66;5029510;28;20041;-70
2022/08/18 04:44:11;;;;;;;12.07;7.88;;;;;;;15.41;95.27;93574.13;5028747;28;20039;-70
2022/08/18 04:46:41;;;;;;;13.80;8.18;;;;;;;15.47;94.54;93575.06;5029374;28;20486;-69
2022/08/18 04:49:09;;;;;;;14.07;8.43;;;;;;;15.30;94.40;93575.31;5027776;28;20050;-69
2022/08/18 04:51:41;;;;;;;11.82;8.00;;;;;;;15.68;93.62;93573.47;5029470;28;20041;-69
2022/08/18 04:54:28;;;;;;;13.07;7.93;;;;;;;15.68;93.15;93571.47;5028547;28;20505;-68
2022/08/18 04:56:55;;;;;;;13.02;8.35;;;;;;;15.50;92.92;93563.88;5028833;28;20049;-69
2022/08/18 04:59:22;;;;;;;12.32;8.23;;;;;;;15.53;94.31;93560.22;5028617;28;20041;-69
2022/08/18 05:01:48;;;;;;;15.03;8.50;;;;;;;15.16;95.15;93554.53;5029151;28;20049;-69
2022/08/18 05:04:16;;;;;;;14.77;8.32;;;;;;;15.40;94.64;93559.53;5028532;28;20045;-69
2022/08/18 05:06:44;;;;;;;13.57;7.90;;;;;;;15.44;93.39;93546.34;5029072;28;20045;-70
2022/08/18 05:09:12;;;;;;;12.80;7.90;;;;;;;15.44;93.38;93545.59;5028434;28;20406;-68
2022/08/18 05:11:49;;;;;;;13.63;7.88;;;;;;;15.55;93.28;93543.94;5015386;28;20045;-68
2022/08/18 05:14:16;;;;;;;11.13;7.67;;;;;;;15.63;92.67;93535.34;5028217;28;20041;-68
2022/08/18 05:16:44;;;;;;;14.85;8.43;;;;;;;15.25;93.91;93539.22;5028581;28;20049;-68
2022/08/18 05:19:21;;;;;;;13.90;8.13;;;;;;;15.44;93.72;93526.22;5028192;28;20057;-70
2022/08/18 05:21:54;;;;;;;13.77;7.80;;;;;;;15.43;93.64;93519.91;5028696;28;20049;-68
2022/08/18 05:24:31;;;;;;;11.50;8.00;;;;;;;15.56;92.86;93506.75;5028195;28;20528;-68
2022/08/18 05:27:03;;;;;;;12.40;7.40;;;;;;;15.53;93.82;93502.13;5028871;28;20054;-70
2022/08/18 05:29:36;;;;;;;12.05;8.32;;;;;;;15.43;93.56;93508.09;5013797;28;20064;-68
2022/08/18 05:32:11;;;;;;;16.67;8.23;;;;;;;15.52;93.86;93510.88;5028101;28;20040;-68
2022/08/18 05:35:06;;;;;;;12.50;8.25;;;;;;;15.57;92.97;93493.66;5022123;28;20046;-69
2022/08/18 05:37:52;;;;;;;12.20;7.78;;;;;;;15.58;91.76;93500.75;5027800;28;20572;-68
2022/08/18 05:40:23;;;;;;;11.10;7.23;;;;;;;15.42;92.62;93501.03;5015287;28;20044;-70
2022/08/18 05:42:50;;;;;;;13.80;8.38;;;;;;;15.00;95.69;93510.56;5028506;28;20061;-68
2022/08/18 05:45:19;;;;;;;13.73;8.98;;;;;;;15.09;96.53;93504.28;5059938;28;20046;-70
2022/08/18 05:47:46;;;;;;;12.63;7.65;;;;;;;15.36;94.42;93501.63;5028204;28;20138;-69
2022/08/18 05:50:18;;;;;;;12.70;8.32;;;;;;;15.31;93.61;93515.25;5027636;28;20041;-70
2022/08/18 05:53:08;;;;;;;13.40;7.87;;;;;;;15.61;93.05;93527.47;5028329;28;20045;-69
2022/08/18 05:58:45;;;;;;;11.65;7.53;;;;;;;15.80;91.78;93593.97;4986814;28;21180;-68
2022/08/18 06:01:16;;;;;;;11.05;7.47;;;;;;;15.65;92.67;93611.09;5026668;28;20059;-68
2022/08/18 06:04:00;;;;;;;12.43;7.55;;;;;;;15.63;92.60;93619.06;5031456;28;20045;-69
2022/08/18 06:06:29;;;;;;;10.97;7.40;;;;;;;15.73;91.00;93620.69;5032090;28;20055;-67
2022/08/18 06:09:14;;;;;;;10.00;6.50;;;;;;;15.57;90.78;93610.63;5031851;28;20053;-68
2022/08/18 06:11:42;;;;;;;9.70;6.75;;;;;;;15.76;90.43;93605.19;5063306;28;20124;-68
2022/08/18 06:14:09;;;;;;;10.30;6.32;;;;;;;16.10;88.36;93618.03;5031315;28;20491;-71
2022/08/18 06:16:41;;;;;;;10.65;6.80;;;;;;;16.20;87.77;93626.31;5031873;28;20049;-67
2022/08/18 06:19:36;;;;;;;10.00;6.63;;;;;;;16.22;87.01;93624.66;5031130;28;20384;-68
2022/08/18 06:22:25;;;;;;;11.10;6.78;;;;;;;16.14;87.61;93623.41;5032104;28;20042;-68
2022/08/18 06:25:20;;;;;;;13.23;7.20;;;;;;;16.05;90.15;93631.69;5018502;28;20644;-68
2022/08/18 06:28:14;;;;;;;10.48;6.68;;;;;;;16.17;88.81;93626.00;5030162;28;20585;-69
2022/08/18 06:30:41;;;;;;;11.27;6.97;;;;;;;16.60;86.23;93619.91;5030346;28;20053;-67
2022/08/18 06:33:28;;;;;;;10.27;7.20;;;;;;;16.61;85.64;93613.91;5030529;28;20512;-67
2022/08/18 06:36:01;;;;;;;11.45;6.80;;;;;;;17.24;84.44;93614.28;5025379;28;20056;-68
2022/08/18 06:38:47;;;;;;;12.40;6.75;;;;;;;17.61;81.61;93616.22;5029298;28;20053;-69
2022/08/18 06:41:21;;;;;;;9.68;6.70;;;;;;;17.83;78.83;93616.75;5030373;28;20068;-67
2022/08/18 06:44:12;;;;;;;9.20;6.53;;;;;;;17.89;79.17;93612.09;5030681;28;20056;-67
2022/08/18 06:46:45;;;;;;;16.00;7.40;;;;;;;17.61;79.88;93603.09;5031332;28;20052;-67
2022/08/18 06:49:27;;;;;;;11.55;7.10;;;;;;;16.75;82.35;93610.50;5030565;28;20040;-67
2022/08/18 06:51:54;;;;;;;10.85;7.32;;;;;;;17.65;80.06;93619.59;5031430;28;20041;-69
2022/08/18 06:54:21;;;;;;;10.77;7.10;;;;;;;21.63;65.68;93619.41;5061824;28;20033;-67
2022/08/18 06:56:51;;;;;;;12.70;7.10;;;;;;;24.34;57.00;93604.28;5030837;28;20043;-68
2022/08/18 06:59:31;;;;;;;8.93;6.50;;;;;;;25.75;51.78;93597.25;5030047;28;20037;-69
2022/08/18 07:02:01;;;;;;;11.00;6.70;;;;;;;26.27;47.99;93605.50;5028349;28;20044;-71
2022/08/18 07:04:38;;;;;;;9.85;7.22;;;;;;;25.29;50.61;93602.41;5030553;28;20516;-67
2022/08/18 07:07:39;;;;;;;8.93;6.50;;;;;;;24.57;50.54;93610.63;5062021;28;20543;-68
2022/08/18 07:10:35;;;;;;;8.77;6.70;;;;;;;23.87;52.81;93601.31;4988286;28;20054;-67
2022/08/18 07:13:25;;;;;;;9.47;7.50;;;;;;;20.75;63.41;93609.16;5017555;28;20494;-68
2022/08/18 07:16:13;;;;;;;13.05;8.13;;;;;;;20.67;65.21;93596.88;5029777;28;20533;-70
2022/08/18 07:18:42;;;;;;;10.13;7.57;;;;;;;22.49;59.69;93581.13;5029616;28;20045;-68
2022/08/18 07:21:31;;;;;;;8.82;7.68;;;;;;;21.72;61.31;93594.09;5030051;28;20049;-71
2022/08/18 07:24:19;;;;;;;9.80;8.05;;;;;;;22.18;60.78;93593.16;5030648;28;20059;-70
2022/08/18 07:26:59;;;;;;;9.93;8.30;;;;;;;22.92;58.79;93599.88;5017582;28;20851;-69
2022/08/18 07:29:28;;;;;;;10.88;8.45;;;;;;;22.88;57.73;93602.91;5029455;28;20057;-67
2022/08/18 07:31:59;;;;;;;12.50;8.15;;;;;;;23.83;55.44;93595.94;5030114;28;20042;-67
2022/08/18 07:34:36;;;;;;;9.43;7.57;;;;;;;24.22;53.30;93583.91;5029537;28;20049;-68
2022/08/18 07:37:11;;;;;;;10.38;7.88;;;;;;;24.32;52.82;93593.56;5017654;28;20479;-67
2022/08/18 07:39:44;;;;;;;9.57;8.17;;;;;;;23.03;56.71;93604.75;5029186;28;21781;-69
2022/08/18 07:42:43;;;;;;;9.88;8.20;;;;;;;21.72;61.61;93608.84;5029177;28;20045;-69
2022/08/18 07:45:32;;;;;;;11.93;8.68;;;;;;;20.61;64.76;93612.03;5029359;28;20061;-68
2022/08/18 07:48:20;;;;;;;11.40;8.98;;;;;;;21.07;64.52;93605.69;5030080;28;20110;-69
2022/08/18 07:51:14;;;;;;;12.93;9.27;;;;;;;20.95;64.31;93625.09;5028899;28;20042;-66
2022/08/18 07:54:10;;;;;;;11.57;8.10;;;;;;;21.59;63.46;93633.63;5029309;28;20260;-69
2022/08/18 07:57:26;;;;;;;11.20;8.85;;;;;;;22.76;59.40;93609.72;5029050;28;20053;-68
2022/08/18 08:00:11;;;;;;;12.50;9.40;;;;;;;21.13;62.17;93612.84;5016439;28;20056;-71
2022/08/18 08:02:57;;;;;;;10.95;8.18;;;;;;;23.04;58.59;93607.03;5027650;28;20037;-68
2022/08/18 08:05:52;;;;;;;13.00;9.38;;;;;;;21.12;63.92;93610.56;5029804;28;20407;-69
2022/08/18 08:08:28;;;;;;;14.13;9.43;;;;;;;20.29;67.51;93597.91;5029100;28;20678;-69
2022/08/18 08:11:25;;;;;;;13.32;9.25;;;;;;;21.41;65.29;93603.19;5029722;28;20033;-68
2022/08/18 08:14:22;;;;;;;12.25;8.75;;;;;;;25.54;52.76;93606.09;5028991;28;20935;-71
2022/08/18 08:16:59;;;;;;;11.55;8.68;;;;;;;24.98;53.01;93607.16;5017689;28;20251;-68
2022/08/18 08:19:41;;;;;;;13.30;9.20;;;;;;;22.65;58.63;93626.44;5028931;28;20037;-68
2022/08/18 08:22:51;;;;;;;14.23;9.77;;;;;;;22.32;61.81;93589.44;5028930;28;20049;-70
2022/08/18 08:25:28;;;;;;;11.13;9.35;;;;;;;22.14;62.28;93570.25;5017629;28;20057;-68
2022/08/18 08:28:49;;;;;;;11.82;9.90;;;;;;;22.12;62.69;93575.59;5028827;28;20045;-68
2022/08/18 08:31:31;;;;;;;11.32;8.63;;;;;;;23.58;59.21;93580.88;5028687;28;20102;-69
2022/08/18 08:34:18;;;;;;;12.52;8.40;;;;;;;25.48;51.21;93563.22;5029366;28;20119;-70
2022/08/18 08:36:46;;;;;;;10.83;9.13;;;;;;;24.75;53.93;93566.41;5028445;28;20389;-68
2022/08/18 08:39:21;;;;;;;13.88;9.90;;;;;;;22.40;60.50;93577.78;5028680;28;20063;-68
2022/08/18 08:42:00;;;;;;;14.18;10.40;;;;;;;22.31;60.74;93570.38;5028687;28;20041;-69
2022/08/18 08:44:59;;;;;;;11.90;9.82;;;;;;;23.01;59.82;93568.84;5028264;28;20061;-68
2022/08/18 08:47:44;;;;;;;13.40;10.10;;;;;;;24.07;56.25;93549.81;5028664;28;20051;-70
2022/08/18 08:50:25;;;;;;;11.23;9.17;;;;;;;27.17;47.90;93541.00;5028724;28;20079;-69
2022/08/18 08:53:28;;;;;;;10.77;9.25;;;;;;;24.04;54.74;93543.16;5029044;28;20059;-70
2022/08/18 08:56:05;;;;;;;11.40;9.88;;;;;;;23.24;58.91;93541.69;5028061;28;21549;-69
2022/08/18 08:58:53;;;;;;;11.90;10.20;;;;;;;23.67;56.79;93543.47;5027947;28;20732;-69
2022/08/18 09:01:44;;;;;;;10.23;8.43;;;;;;;28.16;45.24;93556.09;5027934;28;20048;-69
2022/08/18 09:04:30;;;;;;;10.83;8.63;;;;;;;26.43;49.57;93558.03;5023330;28;20337;-69
2022/08/18 09:07:07;;;;;;;11.95;9.20;;;;;;;28.25;43.63;93564.16;5016194;28;20060;-69
2022/08/18 09:09:52;;;;;;;14.07;8.90;;;;;;;28.74;43.34;93554.53;5027889;28;20784;-70
2022/08/18 09:12:32;;;;;;;10.85;8.70;;;;;;;27.26;44.93;93566.72;5028044;28;20406;-73
2022/08/18 09:15:20;;;;;;;9.88;8.20;;;;;;;28.64;42.66;93568.31;5028856;28;20540;-69
2022/08/18 09:18:08;;;;;;;11.97;8.43;;;;;;;28.70;43.00;93573.09;5027714;28;20935;-70
2022/08/18 09:20:50;;;;;;;9.30;8.10;;;;;;;30.18;40.16;93580.59;5026406;28;20587;-69
2022/08/18 09:23:29;;;;;;;9.57;7.00;;;;;;;32.08;35.75;93577.78;5028238;28;20037;-69
2022/08/18 09:26:01;;;;;;;9.90;7.40;;;;;;;30.02;38.88;93580.50;5028736;28;20490;-69
2022/08/18 09:28:29;;;;;;;8.88;7.68;;;;;;;25.99;48.04;93583.25;5027163;28;20750;-69
2022/08/18 09:31:04;;;;;;;9.40;8.10;;;;;;;25.62;49.77;93572.56;5028708;28;20265;-69
2022/08/18 09:33:37;;;;;;;9.45;8.02;;;;;;;27.27;45.79;93557.00;5027361;28;20537;-68
2022/08/18 09:36:06;;;;;;;8.45;7.15;;;;;;;27.82;45.19;93545.38;5031246;28;20042;-67
2022/08/18 09:42:02;;;;;;;10.65;7.38;;;;;;;28.14;42.90;93552.31;5019299;28;20852;-68
2022/08/18 09:44:47;;;;;;;10.43;7.30;;;;;;;26.22;47.83;93554.91;5034267;28;20051;-68
2022/08/18 09:47:19;;;;;;;16.17;8.90;;;;;;;23.49;56.12;93562.31;5034256;28;20040;-68
2022/08/18 09:49:55;;;;;;;11.35;7.55;;;;;;;24.34;53.49;93553.78;5035139;28;20037;-69
2022/08/18 09:52:22;;;;;;;12.95;8.73;;;;;;;23.02;57.13;93552.81;5034319;28;20483;-68
2022/08/18 09:55:23;;;;;;;9.95;7.68;;;;;;;26.44;48.36;93535.00;5035007;28;20050;-68
2022/08/18 09:58:18;;;;;;;10.50;7.33;;;;;;;26.35;47.29;93543.78;5021945;28;21820;-69
2022/08/18 10:01:05;;;;;;;8.98;7.05;;;;;;;25.81;47.93;93548.13;5023118;28;20625;-70
2022/08/18 10:03:31;;;;;;;8.77;6.72;;;;;;;25.06;50.53;93525.94;5033629;28;20191;-69
2022/08/18 10:06:11;;;;;;;9.05;7.05;;;;;;;24.55;52.79;93514.22;5034881;28;20052;-68
2022/08/18 10:08:52;;;;;;;9.75;7.20;;;;;;;24.36;53.84;93516.84;5033542;28;21367;-68
2022/08/18 10:12:03;;;;;;;9.77;6.70;;;;;;;24.01;54.68;93527.38;5034072;28;20068;-69
2022/08/18 10:14:50;;;;;;;10.93;7.20;;;;;;;22.94;58.31;93532.97;5014794;28;20764;-67
2022/08/18 10:17:33;;;;;;;10.13;7.40;;;;;;;22.81;58.84;93536.22;5034301;28;20037;-69
2022/08/18 10:20:22;;;;;;;9.70;6.90;;;;;;;23.29;56.97;93545.75;5034514;28;20052;-67
2022/08/18 10:22:54;;;;;;;8.35;6.60;;;;;;;23.84;55.22;93535.06;5033778;28;20678;-69
2022/08/18 10:25:45;;;;;;;8.27;6.47;;;;;;;24.16;53.84;93540.34;5034173;28;20063;-69
2022/08/18 10:28:50;;;;;;;9.07;6.50;;;;;;;23.63;55.04;93523.34;5021342;28;20252;-69
2022/08/18 10:31:17;;;;;;;10.38;7.22;;;;;;;25.42;50.90;93506.31;5034244;28;20049;-69
2022/08/18 10:34:10;;;;;;;7.95;6.20;;;;;;;27.47;45.70;93490.09;5034852;28;20038;-68
2022/08/18 10:36:51;;;;;;;8.50;7.10;;;;;;;27.16;46.24;93488.75;5020800;28;20794;-69
2022/08/18 10:39:25;;;;;;;10.63;7.10;;;;;;;26.46;46.97;93472.53;5033734;28;20049;-68
2022/08/18 10:42:20;;;;;;;8.65;6.70;;;;;;;26.67;46.55;93479.19;5034503;28;20052;-68
2022/08/18 10:44:53;;;;;;;9.95;6.82;;;;;;;26.61;46.73;93480.56;5031598;28;20429;-68
2022/08/18 10:47:29;;;;;;;8.85;7.07;;;;;;;23.77;53.23;93483.13;5032587;28;20048;-68
2022/08/18 10:50:05;;;;;;;8.80;7.43;;;;;;;23.43;55.09;93482.38;5031272;28;20049;-70
2022/08/18 10:53:02;;;;;;;10.27;7.60;;;;;;;23.96;55.02;93486.13;5030511;28;20926;-68
2022/08/18 10:56:32;;;;;;;9.73;7.30;;;;;;;23.63;56.63;93486.94;5030079;28;20057;-69
2022/08/18 10:59:22;;;;;;;9.43;6.72;;;;;;;25.03;52.23;93482.84;5010271;28;20080;-68
2022/08/18 11:02:36;;;;;;;10.82;7.38;;;;;;;25.46;51.78;93467.47;5023245;28;20037;-69
2022/08/18 11:05:11;;;;;;;9.80;7.28;;;;;;;25.16;52.78;93471.00;5020073;28;20095;-68
2022/08/18 11:07:42;;;;;;;8.43;7.20;;;;;;;24.81;53.83;93469.72;5030146;28;21658;-69
2022/08/18 11:10:23;;;;;;;8.85;7.10;;;;;;;24.48;54.12;93468.56;5030742;28;20053;-68
2022/08/18 11:13:36;;;;;;;9.65;6.90;;;;;;;24.78;53.28;93462.31;5031183;28;20456;-69
2022/08/18 11:16:35;;;;;;;10.27;7.28;;;;;;;24.27;55.08;93465.38;5030093;28;20053;-69
2022/08/18 11:19:14;;;;;;;10.20;7.32;;;;;;;25.05;53.27;93457.03;5030037;28;21178;-69
2022/08/18 11:21:45;;;;;;;9.27;7.67;;;;;;;24.56;55.43;93454.03;5029505;28;20068;-70
2022/08/18 11:24:26;;;;;;;8.90;7.03;;;;;;;25.08;54.35;93448.31;5030388;28;20072;-70
2022/08/18 11:27:00;;;;;;;10.00;7.45;;;;;;;25.21;52.97;93435.72;5030778;28;20059;-69
2022/08/18 11:29:39;;;;;;;9.25;7.60;;;;;;;24.47;53.43;93436.22;5029655;28;20049;-72
2022/08/18 11:32:23;;;;;;;9.98;7.55;;;;;;;25.11;51.79;93433.25;5030288;28;20502;-69
2022/08/18 11:34:59;;;;;;;9.87;8.10;;;;;;;23.26;56.93;93443.94;5030556;28;20048;-70
2022/08/18 11:37:42;;;;;;;10.25;7.75;;;;;;;22.94;57.25;93452.56;5030263;28;20055;-70
2022/08/18 11:40:17;;;;;;;9.38;7.03;;;;;;;25.33;50.71;93437.16;5030067;28;20052;-70
2022/08/18 11:43:13;;;;;;;8.77;5.75;;;;;;;26.62;46.60;93426.56;5029991;28;20045;-67
2022/08/18 11:46:00;;;;;;;8.00;5.28;;;;;;;27.00;44.35;93432.13;5021742;28;20046;-71
2022/08/18 11:48:28;;;;;;;7.47;6.07;;;;;;;26.62;46.18;93425.78;5024653;28;20075;-69
2022/08/18 11:51:15;;;;;;;8.73;6.03;;;;;;;25.95;46.85;93425.34;5029616;28;20053;-69
2022/08/18 11:53:48;;;;;;;8.23;6.15;;;;;;;26.38;46.02;93430.19;5028747;28;20055;-69
2022/08/18 11:56:30;;;;;;;7.00;5.68;;;;;;;25.93;47.30;93446.84;5017082;28;20396;-68
2022/08/18 11:59:27;;;;;;;8.07;5.57;;;;;;;25.94;47.96;93451.16;5028143;28;20398;-68
2022/08/18 12:02:19;;;;;;;7.60;5.90;;;;;;;26.14;47.07;93449.91;5029523;28;20053;-70
2022/08/18 12:04:51;;;;;;;6.75;5.70;;;;;;;26.38;46.63;93444.25;5029982;28;20049;-68
2022/08/18 12:07:34;;;;;;;7.50;5.60;;;;;;;25.76;47.51;93444.94;5029776;28;20037;-69
2022/08/18 12:10:26;;;;;;;6.90;5.53;;;;;;;26.56;46.48;93431.50;5030058;28;20051;-68
2022/08/18 12:12:58;;;;;;;7.03;5.53;;;;;;;26.88;45.30;93431.56;5028851;28;20056;-69
2022/08/18 12:15:34;;;;;;;7.93;5.50;;;;;;;27.23;44.95;93434.63;5029651;28;20418;-68
2022/08/18 12:18:16;;;;;;;7.20;5.80;;;;;;;26.64;45.83;93431.66;5029520;28;20079;-68
2022/08/18 12:20:57;;;;;;;8.60;5.60;;;;;;;26.92;45.48;93425.59;5029818;28;20143;-68
2022/08/18 12:23:24;;;;;;;6.85;5.50;;;;;;;26.93;46.05;93420.75;5014514;28;20053;-70
2022/08/18 12:25:51;;;;;;;7.55;5.88;;;;;;;26.33;46.89;93428.22;5029428;28;20045;-68
2022/08/18 12:28:21;;;;;;;6.60;5.60;;;;;;;25.96;47.71;93421.25;5028879;28;20061;-70